Butes — A8UR6 — position and weather

sailwx.info

Track history (hours):
 
Tides and Currents Weather Stations Pressure Air Temp Water Temp Dewpoint Dewpoint Depression Visibility Wind Speed Wind Dir Waves Ship Positions

Butes

Last reported at 2017-Jun-22 17:19 UTC. Time now 2017-Jun-27 13:55 UTC.
Position N 49°34' W 004°07'.

Length 90 m; draft 5.7 m.

Type: Cargo ship. MMSI: 636091937.

Date/timePositionNaut miles runAvg speedWind from/ knotsBaromVisibWave heightAir tempDewpointWater temp
2017-Jun-22 17:19N 49°34' W 004°07'31 8.8
2017-Jun-22 13:45N 49°50' W 003°25'210.0
2017-Jun-22 13:30N 49°51' W 003°22'510.5
2017-Jun-22 13:00N 49°53' W 003°14'611.2
2017-Jun-22 12:29N 49°56' W 003°07'611.7
2017-Jun-22 12:01N 49°59' W 002°59'611.9
2017-Jun-22 11:30N 50°01' W 002°50'62 8.7
2017-Jun-22 04:25N 50°18' W 001°17'3 7.9
2017-Jun-22 04:00N 50°19' W 001°12'4 8.7
2017-Jun-22 03:30N 50°20' W 001°06'5 9.7
2017-Jun-22 03:00N 50°21' W 000°58'510.7
2017-Jun-22 02:30N 50°23' W 000°50'611.2
2017-Jun-22 01:55N 50°25' W 000°41'511.8
2017-Jun-22 01:30N 50°27' W 000°34'611.2
2017-Jun-22 01:00N 50°28' W 000°25'611.2
2017-Jun-22 00:30N 50°28' W 000°16'611.7
2017-Jun-22 00:00N 50°30' W 000°07'611.4
2017-Jun-21 23:31N 50°31' E 000°01'611.1
2017-Jun-21 23:01N 50°33' E 000°10'510.8
2017-Jun-21 22:30N 50°34' E 000°18'510.1
2017-Jun-21 22:01N 50°36' E 000°26'5 9.8
2017-Jun-21 21:31N 50°37' E 000°33'5 9.4
2017-Jun-21 21:01N 50°40' E 000°39'5 9.2
2017-Jun-21 20:31N 50°43' E 000°45'5 9.1
2017-Jun-21 19:59N 50°46' E 000°51'9 9.3
2017-Jun-21 19:04N 50°51' E 001°01'2 9.9
2017-Jun-21 18:52N 50°52' E 001°04'410.0
2017-Jun-21 18:29N 50°54' E 001°09'510.7
2017-Jun-21 18:01N 50°58' E 001°15'611.9
2017-Jun-21 17:31N 51°01' E 001°22'713.0
2017-Jun-21 17:00N 51°06' E 001°30'713.6
2017-Jun-21 16:31N 51°10' E 001°38'612.5
2017-Jun-21 16:00N 51°15' E 001°45'611.9
2017-Jun-21 15:31N 51°20' E 001°48'611.3
2017-Jun-21 15:00N 51°26' E 001°51'4 7.4
2017-Jun-21 14:30N 51°29' E 001°48'1110.6
2017-Jun-21 13:31N 51°29' E 001°31'612.0
2017-Jun-21 12:59N 51°28' E 001°21'612.2
2017-Jun-21 12:30N 51°29' E 001°12'611.7
2017-Jun-21 12:00N 51°30' E 001°03'611.8
2017-Jun-21 11:30N 51°29' E 000°53'510.3
2017-Jun-21 11:01N 51°27' E 000°45'4 6.1
2017-Jun-21 10:24N 51°24' E 000°45'1 0.1
2017-Jun-21 05:09N 51°23' E 000°46'0 0.0
2017-Jun-21 01:39N 51°23' E 000°46'0 0.0
2017-Jun-21 01:24N 51°23' E 000°46'0 0.0
2017-Jun-21 00:48N 51°23' E 000°46'0 0.0
2017-Jun-21 00:30N 51°23' E 000°46'0 0.0
2017-Jun-20 22:51N 51°23' E 000°46'0 0.0
2017-Jun-20 22:27N 51°23' E 000°46'0 0.0
2017-Jun-20 21:54N 51°23' E 000°46'0 0.0
2017-Jun-20 21:27N 51°23' E 000°46'0 0.0
2017-Jun-20 20:42N 51°23' E 000°46'0 0.0
2017-Jun-20 20:24N 51°23' E 000°46'0 0.0
2017-Jun-20 19:57N 51°23' E 000°46'0 0.0
2017-Jun-20 19:09N 51°23' E 000°46'0 0.0
2017-Jun-20 18:45N 51°23' E 000°46'0 0.0
2017-Jun-20 17:30N 51°23' E 000°46'0 0.0
2017-Jun-20 13:09N 51°23' E 000°46'0 0.0
2017-Jun-20 12:51N 51°23' E 000°46'0 0.0
2017-Jun-20 12:27N 51°23' E 000°46'0 0.0
2017-Jun-20 11:57N 51°23' E 000°46'0 0.0
2017-Jun-20 11:15N 51°23' E 000°46'0 0.0
2017-Jun-20 10:57N 51°23' E 000°46'0 0.0
2017-Jun-20 10:24N 51°23' E 000°46'0 0.0
2017-Jun-20 10:00N 51°23' E 000°46'0 0.0
2017-Jun-20 09:21N 51°23' E 000°46'0 0.0
2017-Jun-20 08:48N 51°23' E 000°46'0 0.0
2017-Jun-20 08:28N 51°23' E 000°46'2 4.1
2017-Jun-20 08:00N 51°24' E 000°43'2 3.4
2017-Jun-20 07:30N 51°26' E 000°44'5 9.9
2017-Jun-20 07:00N 51°28' E 000°51'4 7.5
2017-Jun-20 06:30N 51°30' E 000°56'2 4.6
2017-Jun-20 06:00N 51°31' E 000°60'0 0.4
2017-Jun-20 05:28N 51°31' E 001°00'0 0.0
2017-Jun-20 04:55N 51°31' E 001°00'0 0.0
2017-Jun-20 04:25N 51°31' E 001°00'0 0.0
2017-Jun-20 03:55N 51°31' E 001°00'0 0.0
2017-Jun-20 03:28N 51°31' E 001°00'0 0.0
2017-Jun-20 02:49N 51°31' E 001°00'0 0.1
2017-Jun-20 02:25N 51°31' E 001°00'0 0.1
2017-Jun-20 01:55N 51°31' E 001°00'0 0.0
2017-Jun-20 01:28N 51°31' E 001°00'0 0.0
2017-Jun-20 00:49N 51°31' E 001°00'0 0.0
2017-Jun-20 00:16N 51°31' E 001°00'0 0.0
2017-Jun-19 23:49N 51°31' E 001°00'0 0.0
2017-Jun-19 23:28N 51°31' E 001°00'0 0.0
2017-Jun-19 22:55N 51°31' E 001°00'0 0.0
2017-Jun-19 22:25N 51°31' E 001°00'0 0.0
2017-Jun-19 21:58N 51°31' E 001°00'0 0.0
2017-Jun-19 21:01N 51°31' E 001°00'0 0.0
2017-Jun-19 20:55N 51°31' E 001°00'0 0.2
2017-Jun-19 20:28N 51°31' E 001°00'0 0.1
2017-Jun-19 19:58N 51°31' E 001°00'0 0.0
2017-Jun-19 19:28N 51°31' E 001°00'0 0.0
2017-Jun-19 18:46N 51°31' E 001°00'0 0.0
2017-Jun-19 18:22N 51°31' E 001°00'0 0.0
2017-Jun-19 17:31N 51°31' E 001°00'0 0.0
2017-Jun-19 17:13N 51°31' E 001°00'0 0.0
2017-Jun-19 16:43N 51°31' E 001°00'0 0.0
2017-Jun-19 16:22N 51°31' E 001°00'0 0.0
2017-Jun-19 15:49N 51°31' E 001°00'0 0.0
2017-Jun-19 15:22N 51°31' E 001°00'0 0.0
2017-Jun-19 14:07N 51°31' E 001°00'0 0.1
2017-Jun-19 13:28N 51°31' E 001°00'0 0.1
2017-Jun-19 12:58N 51°31' E 001°00'0 0.0
2017-Jun-19 12:28N 51°31' E 001°00'0 0.0
2017-Jun-19 11:58N 51°31' E 001°00'0 0.0
2017-Jun-19 11:28N 51°31' E 001°00'0 0.0
2017-Jun-19 10:55N 51°31' E 001°00'0 0.0
2017-Jun-19 10:28N 51°31' E 001°00'0 0.0
2017-Jun-19 09:58N 51°31' E 001°00'0 0.0
2017-Jun-19 09:28N 51°31' E 001°00'0 0.0
2017-Jun-19 08:55N 51°31' E 001°00'0 0.1
2017-Jun-19 08:28N 51°31' E 001°00'0 0.1
2017-Jun-19 07:52N 51°31' E 001°00'0 0.0
2017-Jun-19 07:25N 51°31' E 001°00'0 0.0
2017-Jun-19 06:58N 51°31' E 001°00'0 0.0
2017-Jun-19 06:28N 51°31' E 001°00'0 0.0
2017-Jun-19 05:58N 51°31' E 001°00'0 0.0
2017-Jun-19 05:25N 51°31' E 001°00'0 0.0
2017-Jun-19 04:58N 51°31' E 001°00'0 0.0
2017-Jun-19 04:28N 51°31' E 001°00'0 0.0
2017-Jun-19 03:58N 51°31' E 001°00'0 0.0
2017-Jun-19 03:28N 51°31' E 001°00'0 0.0
2017-Jun-19 02:49N 51°31' E 001°00'0 0.0
2017-Jun-19 02:25N 51°31' E 001°00'0 0.0
2017-Jun-19 01:58N 51°31' E 001°00'0 0.1
2017-Jun-19 01:25N 51°31' E 001°00'0 0.1
2017-Jun-19 00:55N 51°31' E 001°00'0 0.0
2017-Jun-19 00:28N 51°31' E 001°00'0 0.0
2017-Jun-18 23:43N 51°31' E 001°00'0 0.0
2017-Jun-18 23:07N 51°31' E 001°00'0 0.0
2017-Jun-18 22:55N 51°31' E 001°00'0 0.0
2017-Jun-18 21:31N 51°31' E 001°00'0 0.0
2017-Jun-18 20:04N 51°31' E 001°00'0 0.3
2017-Jun-18 19:52N 51°31' E 001°00'3 9.3
2017-Jun-18 19:29N 51°30' E 000°55'510.6
2017-Jun-18 19:00N 51°29' E 000°47'611.2
2017-Jun-18 18:30N 51°30' E 000°38'510.2
2017-Jun-18 18:00N 51°30' E 000°30'5 9.4
2017-Jun-18 17:30N 51°27' E 000°24'3 6.9
2017-Jun-18 17:00N 51°28' E 000°19'4 8.1
2017-Jun-18 16:30N 51°29' E 000°13'3 6.7
2017-Jun-18 15:59N 51°31' E 000°08'0 0.0
2017-Jun-18 15:29N 51°31' E 000°08'0 0.0
2017-Jun-18 14:59N 51°31' E 000°08'0 0.0
2017-Jun-18 13:44N 51°31' E 000°08'0 0.0
2017-Jun-18 13:26N 51°31' E 000°08'0 0.0
2017-Jun-18 12:59N 51°31' E 000°08'0 0.0
2017-Jun-18 12:26N 51°31' E 000°08'0 0.0
2017-Jun-18 11:59N 51°31' E 000°08'0 0.0
2017-Jun-18 11:29N 51°31' E 000°08'0 0.0
2017-Jun-18 10:59N 51°31' E 000°08'0 0.0
2017-Jun-18 10:26N 51°31' E 000°08'0 0.0
2017-Jun-18 09:59N 51°31' E 000°08'0 0.0
2017-Jun-18 09:29N 51°31' E 000°08'0 0.0
2017-Jun-18 08:56N 51°31' E 000°08'0 0.0
2017-Jun-18 08:29N 51°31' E 000°08'0 0.0
2017-Jun-18 07:56N 51°31' E 000°08'0 0.0
2017-Jun-18 07:29N 51°31' E 000°08'0 0.0
2017-Jun-18 06:59N 51°31' E 000°08'0 0.0
2017-Jun-18 06:29N 51°31' E 000°08'0 0.0
2017-Jun-18 05:56N 51°31' E 000°08'0 0.0
2017-Jun-18 05:29N 51°31' E 000°08'0 0.0
2017-Jun-18 04:59N 51°31' E 000°08'0 0.0
2017-Jun-18 04:29N 51°31' E 000°08'0 0.0
2017-Jun-18 03:59N 51°31' E 000°08'0 0.0
2017-Jun-18 03:29N 51°31' E 000°08'0 0.0
2017-Jun-18 02:56N 51°31' E 000°08'0 0.0
2017-Jun-18 02:29N 51°31' E 000°08'0 0.0
2017-Jun-18 01:59N 51°31' E 000°08'0 0.0
2017-Jun-18 01:29N 51°31' E 000°08'0 0.0
2017-Jun-18 00:59N 51°31' E 000°08'0 0.0
2017-Jun-18 00:29N 51°31' E 000°08'0 0.0
2017-Jun-17 23:59N 51°31' E 000°08'0 0.0
2017-Jun-17 23:29N 51°31' E 000°08'0 0.0
2017-Jun-17 22:59N 51°31' E 000°08'0 0.0
2017-Jun-17 22:29N 51°31' E 000°08'0 0.0
2017-Jun-17 21:56N 51°31' E 000°08'0 0.0
2017-Jun-17 21:26N 51°31' E 000°08'0 0.0
2017-Jun-17 20:59N 51°31' E 000°08'0 0.0
2017-Jun-17 20:29N 51°31' E 000°08'0 0.0
2017-Jun-17 19:59N 51°31' E 000°08'0 0.0
2017-Jun-17 19:26N 51°31' E 000°08'0 0.0
2017-Jun-17 18:59N 51°31' E 000°08'0 0.0
2017-Jun-17 18:29N 51°31' E 000°08'0 0.0
2017-Jun-17 17:59N 51°31' E 000°08'0 0.0
2017-Jun-17 17:29N 51°31' E 000°08'0 0.0
2017-Jun-17 16:56N 51°31' E 000°08'0 0.0
2017-Jun-17 16:23N 51°31' E 000°08'0 0.0
2017-Jun-17 15:59N 51°31' E 000°08'0 0.0
2017-Jun-17 15:23N 51°31' E 000°08'0 0.0
2017-Jun-17 15:00N 51°31' E 000°08'2 4.6
2017-Jun-17 14:30N 51°30' E 000°11'9 9.3
2017-Jun-17 13:30N 51°27' E 000°25'5 9.6
2017-Jun-17 13:01N 51°30' E 000°31'5 9.9
2017-Jun-17 12:30N 51°30' E 000°39'510.0
2017-Jun-17 11:59N 51°29' E 000°47'5 9.6
2017-Jun-17 11:28N 51°30' E 000°55'2 1.3
2017-Jun-17 09:39N 51°30' E 000°59'0 0.2
2017-Jun-17 09:30N 51°30' E 000°59'3 3.3
2017-Jun-17 08:43N 51°30' E 001°03'2 8.5
2017-Jun-17 08:30N 51°30' E 001°06'4 8.2
2017-Jun-17 08:00N 51°29' E 001°12'9 8.1
2017-Jun-17 06:55N 51°29' E 001°27'4 9.3
2017-Jun-17 06:30N 51°29' E 001°33'5 9.5
2017-Jun-17 06:00N 51°29' E 001°40'5 9.4
2017-Jun-17 05:30N 51°29' E 001°48'4 9.0
2017-Jun-17 05:01N 51°29' E 001°55'510.2
2017-Jun-17 04:30N 51°25' E 002°01'5 9.9
2017-Jun-17 04:00N 51°22' E 002°06'5 9.5
2017-Jun-17 03:30N 51°17' E 002°06'510.6
2017-Jun-17 02:59N 51°13' E 002°00'510.7
2017-Jun-17 02:30N 51°10' E 001°53'510.2
2017-Jun-17 01:58N 51°07' E 001°46'5 9.8
2017-Jun-17 01:30N 51°04' E 001°41'5 9.2
2017-Jun-17 01:00N 51°00' E 001°35'4 8.9
2017-Jun-17 00:30N 50°57' E 001°31'62 8.3
2017-Jun-16 17:03N 50°22' E 000°10'1 9.3
2017-Jun-16 17:00N 50°22' E 000°09'5 9.4
2017-Jun-16 16:30N 50°21' E 000°02'5 9.6
2017-Jun-16 16:00N 50°20' W 000°05'5 9.9
2017-Jun-16 15:30N 50°19' W 000°13'510.2
2017-Jun-16 15:00N 50°17' W 000°20'510.7
2017-Jun-16 14:30N 50°16' W 000°29'1111.4
2017-Jun-16 13:30N 50°13' W 000°46'612.0
2017-Jun-16 13:00N 50°11' W 000°55'612.2
2017-Jun-16 12:30N 50°10' W 001°04'612.4
2017-Jun-16 12:00N 50°08' W 001°13'612.3
2017-Jun-16 11:30N 50°07' W 001°23'712.1
2017-Jun-16 10:54N 50°05' W 001°34'511.6
2017-Jun-16 10:30N 50°03' W 001°41'611.3
2017-Jun-16 10:00N 50°02' W 001°49'510.7
2017-Jun-16 09:30N 50°01' W 001°57'52 8.7
2017-Jun-16 03:34N 49°50' W 003°16'1 9.2
2017-Jun-16 03:27N 49°50' W 003°17'228 6.8
2017-Jun-14 17:39N 53°32' W 004°44'211.9
2017-Jun-14 17:28N 53°33' W 004°40'2711.6
2017-Jun-14 15:09N 53°24' W 003°57'211.2
2017-Jun-14 15:00N 53°24' W 003°55'1010.0
2017-Jun-14 14:00N 53°18' W 003°40'1 1.4
2017-Jun-14 13:30N 53°18' W 003°40'0 0.0
2017-Jun-14 12:57N 53°18' W 003°40'0 0.0
2017-Jun-14 12:30N 53°18' W 003°40'0 0.0
2017-Jun-14 12:00N 53°18' W 003°40'0 0.0
2017-Jun-14 11:30N 53°18' W 003°40'0 0.0
2017-Jun-14 10:51N 53°18' W 003°40'0 0.0
2017-Jun-14 10:21N 53°18' W 003°40'0 0.0
2017-Jun-14 09:46N 53°18' W 003°40'0 0.6
2017-Jun-14 09:27N 53°18' W 003°40'0 0.7
2017-Jun-14 09:00N 53°18' W 003°41'2 3.5
2017-Jun-14 08:30N 53°20' W 003°41'1 1.2
2017-Jun-14 07:55N 53°21' W 003°41'0 0.1
2017-Jun-14 07:28N 53°21' W 003°41'0 0.0
2017-Jun-14 06:58N 53°21' W 003°41'0 0.0
2017-Jun-14 06:28N 53°21' W 003°41'0 0.0
2017-Jun-14 05:58N 53°21' W 003°41'0 0.0
2017-Jun-14 05:16N 53°21' W 003°41'0 0.3
2017-Jun-14 05:01N 53°21' W 003°41'4 6.5
2017-Jun-14 04:26N 53°22' W 003°47'3 5.3
2017-Jun-14 03:49N 53°25' W 003°50'2 7.6
2017-Jun-14 03:30N 53°27' W 003°48'4 7.7
2017-Jun-14 03:00N 53°30' W 003°45'4 7.4
2017-Jun-14 02:30N 53°33' W 003°41'4 8.2
2017-Jun-14 02:00N 53°33' W 003°34'4 8.2
2017-Jun-14 01:30N 53°33' W 003°27'4 8.2
2017-Jun-14 01:00N 53°33' W 003°20'5 9.6
2017-Jun-14 00:30N 53°31' W 003°12'5 9.0
2017-Jun-14 00:00N 53°30' W 003°05'5 9.4
2017-Jun-13 23:30N 53°26' W 003°01'1 2.8
2017-Jun-13 23:00N 53°24' W 003°01'0 0.0
2017-Jun-13 22:30N 53°24' W 003°01'0 0.1
2017-Jun-13 22:00N 53°24' W 003°01'1 1.6
2017-Jun-13 21:30N 53°24' W 003°03'0 0.0
2017-Jun-13 20:55N 53°24' W 003°03'0 0.0
2017-Jun-13 20:28N 53°24' W 003°03'0 0.0
2017-Jun-13 19:58N 53°24' W 003°03'0 0.0
2017-Jun-13 19:25N 53°24' W 003°03'0 0.0
2017-Jun-13 18:52N 53°24' W 003°03'0 0.0
2017-Jun-13 18:22N 53°24' W 003°03'0 0.0
2017-Jun-13 17:58N 53°24' W 003°03'0 0.0
2017-Jun-13 17:28N 53°24' W 003°03'0 0.0
2017-Jun-13 16:58N 53°24' W 003°03'0 0.0
2017-Jun-13 16:28N 53°24' W 003°03'0 0.0
2017-Jun-13 15:58N 53°24' W 003°03'0 0.0
2017-Jun-13 15:28N 53°24' W 003°03'0 0.0
2017-Jun-13 14:49N 53°24' W 003°03'0 0.0
2017-Jun-13 13:55N 53°24' W 003°03'0 0.0
2017-Jun-13 13:28N 53°24' W 003°03'0 0.0
2017-Jun-13 12:55N 53°24' W 003°03'0 0.0
2017-Jun-13 12:25N 53°24' W 003°03'0 0.0
2017-Jun-13 11:52N 53°24' W 003°03'0 0.0
2017-Jun-13 11:25N 53°24' W 003°03'0 0.0
2017-Jun-13 10:58N 53°24' W 003°03'0 0.0
2017-Jun-13 10:25N 53°24' W 003°03'0 0.0
2017-Jun-13 09:55N 53°24' W 003°03'0 0.0
2017-Jun-13 09:28N 53°24' W 003°03'0 0.0
2017-Jun-13 08:55N 53°24' W 003°03'0 0.0
2017-Jun-13 08:28N 53°24' W 003°03'0 0.0
2017-Jun-13 07:55N 53°24' W 003°03'0 0.0
2017-Jun-13 07:25N 53°24' W 003°03'0 0.0
2017-Jun-13 06:58N 53°24' W 003°03'0 0.0
2017-Jun-13 06:28N 53°24' W 003°03'0 0.0
2017-Jun-13 05:58N 53°24' W 003°03'0 0.0
2017-Jun-13 05:28N 53°24' W 003°03'0 0.0
2017-Jun-13 04:43N 53°24' W 003°03'0 0.0
2017-Jun-13 04:28N 53°24' W 003°03'0 0.0
2017-Jun-13 03:58N 53°24' W 003°03'0 0.0
2017-Jun-13 03:28N 53°24' W 003°03'0 0.0
2017-Jun-13 02:58N 53°24' W 003°03'0 0.0
2017-Jun-13 02:28N 53°24' W 003°03'0 0.0
2017-Jun-13 01:58N 53°24' W 003°03'0 0.0
2017-Jun-13 01:28N 53°24' W 003°03'0 0.0
2017-Jun-13 00:58N 53°24' W 003°03'0 0.0
2017-Jun-13 00:25N 53°24' W 003°03'0 0.0
2017-Jun-12 23:58N 53°24' W 003°03'0 0.0
2017-Jun-12 23:28N 53°24' W 003°03'0 0.0
2017-Jun-12 22:55N 53°24' W 003°03'0 0.0
2017-Jun-12 22:28N 53°24' W 003°03'0 0.0
2017-Jun-12 21:58N 53°24' W 003°03'0 0.0
2017-Jun-12 21:28N 53°24' W 003°03'0 0.0
2017-Jun-12 20:58N 53°24' W 003°03'0 0.0
2017-Jun-12 20:28N 53°24' W 003°03'0 0.0
2017-Jun-12 19:58N 53°24' W 003°03'0 0.0
2017-Jun-12 19:28N 53°24' W 003°03'0 0.0
2017-Jun-12 18:58N 53°24' W 003°03'0 0.0
2017-Jun-12 18:25N 53°24' W 003°03'0 0.0
2017-Jun-12 17:58N 53°24' W 003°03'0 0.0
2017-Jun-12 17:28N 53°24' W 003°03'  
Track history (hours):
 
Tides and Currents Weather Stations Pressure Air Temp Water Temp Dewpoint Dewpoint Depression Visibility Wind Speed Wind Dir Waves Ship Positions

Butes

Last reported at 2017-Jun-22 17:19 UTC. Time now 2017-Jun-27 13:55 UTC.
Position N 49°34' W 004°07'.

Length 90 m; draft 5.7 m.

Type: Cargo ship. MMSI: 636091937.

Date/timePositionNaut miles runAvg speedWind from/ knotsBaromVisibWave heightAir tempDewpointWater temp
2017-Jun-22 17:19N 49°34' W 004°07'31 8.8
2017-Jun-22 13:45N 49°50' W 003°25'210.0
2017-Jun-22 13:30N 49°51' W 003°22'510.5
2017-Jun-22 13:00N 49°53' W 003°14'611.2
2017-Jun-22 12:29N 49°56' W 003°07'611.7
2017-Jun-22 12:01N 49°59' W 002°59'611.9
2017-Jun-22 11:30N 50°01' W 002°50'62 8.7
2017-Jun-22 04:25N 50°18' W 001°17'3 7.9
2017-Jun-22 04:00N 50°19' W 001°12'4 8.7
2017-Jun-22 03:30N 50°20' W 001°06'5 9.7
2017-Jun-22 03:00N 50°21' W 000°58'510.7
2017-Jun-22 02:30N 50°23' W 000°50'611.2
2017-Jun-22 01:55N 50°25' W 000°41'511.8
2017-Jun-22 01:30N 50°27' W 000°34'611.2
2017-Jun-22 01:00N 50°28' W 000°25'611.2
2017-Jun-22 00:30N 50°28' W 000°16'611.7
2017-Jun-22 00:00N 50°30' W 000°07'611.4
2017-Jun-21 23:31N 50°31' E 000°01'611.1
2017-Jun-21 23:01N 50°33' E 000°10'510.8
2017-Jun-21 22:30N 50°34' E 000°18'510.1
2017-Jun-21 22:01N 50°36' E 000°26'5 9.8
2017-Jun-21 21:31N 50°37' E 000°33'5 9.4
2017-Jun-21 21:01N 50°40' E 000°39'5 9.2
2017-Jun-21 20:31N 50°43' E 000°45'5 9.1
2017-Jun-21 19:59N 50°46' E 000°51'9 9.3
2017-Jun-21 19:04N 50°51' E 001°01'2 9.9
2017-Jun-21 18:52N 50°52' E 001°04'410.0
2017-Jun-21 18:29N 50°54' E 001°09'510.7
2017-Jun-21 18:01N 50°58' E 001°15'611.9
2017-Jun-21 17:31N 51°01' E 001°22'713.0
2017-Jun-21 17:00N 51°06' E 001°30'713.6
2017-Jun-21 16:31N 51°10' E 001°38'612.5
2017-Jun-21 16:00N 51°15' E 001°45'611.9
2017-Jun-21 15:31N 51°20' E 001°48'611.3
2017-Jun-21 15:00N 51°26' E 001°51'4 7.4
2017-Jun-21 14:30N 51°29' E 001°48'1110.6
2017-Jun-21 13:31N 51°29' E 001°31'612.0
2017-Jun-21 12:59N 51°28' E 001°21'612.2
2017-Jun-21 12:30N 51°29' E 001°12'611.7
2017-Jun-21 12:00N 51°30' E 001°03'611.8
2017-Jun-21 11:30N 51°29' E 000°53'510.3
2017-Jun-21 11:01N 51°27' E 000°45'4 6.1
2017-Jun-21 10:24N 51°24' E 000°45'1 0.1
2017-Jun-21 05:09N 51°23' E 000°46'0 0.0
2017-Jun-21 01:39N 51°23' E 000°46'0 0.0
2017-Jun-21 01:24N 51°23' E 000°46'0 0.0
2017-Jun-21 00:48N 51°23' E 000°46'0 0.0
2017-Jun-21 00:30N 51°23' E 000°46'0 0.0
2017-Jun-20 22:51N 51°23' E 000°46'0 0.0
2017-Jun-20 22:27N 51°23' E 000°46'0 0.0
2017-Jun-20 21:54N 51°23' E 000°46'0 0.0
2017-Jun-20 21:27N 51°23' E 000°46'0 0.0
2017-Jun-20 20:42N 51°23' E 000°46'0 0.0
2017-Jun-20 20:24N 51°23' E 000°46'0 0.0
2017-Jun-20 19:57N 51°23' E 000°46'0 0.0
2017-Jun-20 19:09N 51°23' E 000°46'0 0.0
2017-Jun-20 18:45N 51°23' E 000°46'0 0.0
2017-Jun-20 17:30N 51°23' E 000°46'0 0.0
2017-Jun-20 13:09N 51°23' E 000°46'0 0.0
2017-Jun-20 12:51N 51°23' E 000°46'0 0.0
2017-Jun-20 12:27N 51°23' E 000°46'0 0.0
2017-Jun-20 11:57N 51°23' E 000°46'0 0.0
2017-Jun-20 11:15N 51°23' E 000°46'0 0.0
2017-Jun-20 10:57N 51°23' E 000°46'0 0.0
2017-Jun-20 10:24N 51°23' E 000°46'0 0.0
2017-Jun-20 10:00N 51°23' E 000°46'0 0.0
2017-Jun-20 09:21N 51°23' E 000°46'0 0.0
2017-Jun-20 08:48N 51°23' E 000°46'0 0.0
2017-Jun-20 08:28N 51°23' E 000°46'2 4.1
2017-Jun-20 08:00N 51°24' E 000°43'2 3.4
2017-Jun-20 07:30N 51°26' E 000°44'5 9.9
2017-Jun-20 07:00N 51°28' E 000°51'4 7.5
2017-Jun-20 06:30N 51°30' E 000°56'2 4.6
2017-Jun-20 06:00N 51°31' E 000°60'0 0.4
2017-Jun-20 05:28N 51°31' E 001°00'0 0.0
2017-Jun-20 04:55N 51°31' E 001°00'0 0.0
2017-Jun-20 04:25N 51°31' E 001°00'0 0.0
2017-Jun-20 03:55N 51°31' E 001°00'0 0.0
2017-Jun-20 03:28N 51°31' E 001°00'0 0.0
2017-Jun-20 02:49N 51°31' E 001°00'0 0.1
2017-Jun-20 02:25N 51°31' E 001°00'0 0.1
2017-Jun-20 01:55N 51°31' E 001°00'0 0.0
2017-Jun-20 01:28N 51°31' E 001°00'0 0.0
2017-Jun-20 00:49N 51°31' E 001°00'0 0.0
2017-Jun-20 00:16N 51°31' E 001°00'0 0.0
2017-Jun-19 23:49N 51°31' E 001°00'0 0.0
2017-Jun-19 23:28N 51°31' E 001°00'0 0.0
2017-Jun-19 22:55N 51°31' E 001°00'0 0.0
2017-Jun-19 22:25N 51°31' E 001°00'0 0.0
2017-Jun-19 21:58N 51°31' E 001°00'0 0.0
2017-Jun-19 21:01N 51°31' E 001°00'0 0.0
2017-Jun-19 20:55N 51°31' E 001°00'0 0.2
2017-Jun-19 20:28N 51°31' E 001°00'0 0.1
2017-Jun-19 19:58N 51°31' E 001°00'0 0.0
2017-Jun-19 19:28N 51°31' E 001°00'0 0.0
2017-Jun-19 18:46N 51°31' E 001°00'0 0.0
2017-Jun-19 18:22N 51°31' E 001°00'0 0.0
2017-Jun-19 17:31N 51°31' E 001°00'0 0.0
2017-Jun-19 17:13N 51°31' E 001°00'0 0.0
2017-Jun-19 16:43N 51°31' E 001°00'0 0.0
2017-Jun-19 16:22N 51°31' E 001°00'0 0.0
2017-Jun-19 15:49N 51°31' E 001°00'0 0.0
2017-Jun-19 15:22N 51°31' E 001°00'0 0.0
2017-Jun-19 14:07N 51°31' E 001°00'0 0.1
2017-Jun-19 13:28N 51°31' E 001°00'0 0.1
2017-Jun-19 12:58N 51°31' E 001°00'0 0.0
2017-Jun-19 12:28N 51°31' E 001°00'0 0.0
2017-Jun-19 11:58N 51°31' E 001°00'0 0.0
2017-Jun-19 11:28N 51°31' E 001°00'0 0.0
2017-Jun-19 10:55N 51°31' E 001°00'0 0.0
2017-Jun-19 10:28N 51°31' E 001°00'0 0.0
2017-Jun-19 09:58N 51°31' E 001°00'0 0.0
2017-Jun-19 09:28N 51°31' E 001°00'0 0.0
2017-Jun-19 08:55N 51°31' E 001°00'0 0.1
2017-Jun-19 08:28N 51°31' E 001°00'0 0.1
2017-Jun-19 07:52N 51°31' E 001°00'0 0.0
2017-Jun-19 07:25N 51°31' E 001°00'0 0.0
2017-Jun-19 06:58N 51°31' E 001°00'0 0.0
2017-Jun-19 06:28N 51°31' E 001°00'0 0.0
2017-Jun-19 05:58N 51°31' E 001°00'0 0.0
2017-Jun-19 05:25N 51°31' E 001°00'0 0.0
2017-Jun-19 04:58N 51°31' E 001°00'0 0.0
2017-Jun-19 04:28N 51°31' E 001°00'0 0.0
2017-Jun-19 03:58N 51°31' E 001°00'0 0.0
2017-Jun-19 03:28N 51°31' E 001°00'0 0.0
2017-Jun-19 02:49N 51°31' E 001°00'0 0.0
2017-Jun-19 02:25N 51°31' E 001°00'0 0.0
2017-Jun-19 01:58N 51°31' E 001°00'0 0.1
2017-Jun-19 01:25N 51°31' E 001°00'0 0.1
2017-Jun-19 00:55N 51°31' E 001°00'0 0.0
2017-Jun-19 00:28N 51°31' E 001°00'0 0.0
2017-Jun-18 23:43N 51°31' E 001°00'0 0.0
2017-Jun-18 23:07N 51°31' E 001°00'0 0.0
2017-Jun-18 22:55N 51°31' E 001°00'0 0.0
2017-Jun-18 21:31N 51°31' E 001°00'0 0.0
2017-Jun-18 20:04N 51°31' E 001°00'0 0.3
2017-Jun-18 19:52N 51°31' E 001°00'3 9.3
2017-Jun-18 19:29N 51°30' E 000°55'510.6
2017-Jun-18 19:00N 51°29' E 000°47'611.2
2017-Jun-18 18:30N 51°30' E 000°38'510.2
2017-Jun-18 18:00N 51°30' E 000°30'5 9.4
2017-Jun-18 17:30N 51°27' E 000°24'3 6.9
2017-Jun-18 17:00N 51°28' E 000°19'4 8.1
2017-Jun-18 16:30N 51°29' E 000°13'3 6.7
2017-Jun-18 15:59N 51°31' E 000°08'0 0.0
2017-Jun-18 15:29N 51°31' E 000°08'0 0.0
2017-Jun-18 14:59N 51°31' E 000°08'0 0.0
2017-Jun-18 13:44N 51°31' E 000°08'0 0.0
2017-Jun-18 13:26N 51°31' E 000°08'0 0.0
2017-Jun-18 12:59N 51°31' E 000°08'0 0.0
2017-Jun-18 12:26N 51°31' E 000°08'0 0.0
2017-Jun-18 11:59N 51°31' E 000°08'0 0.0
2017-Jun-18 11:29N 51°31' E 000°08'0 0.0
2017-Jun-18 10:59N 51°31' E 000°08'0 0.0
2017-Jun-18 10:26N 51°31' E 000°08'0 0.0
2017-Jun-18 09:59N 51°31' E 000°08'0 0.0
2017-Jun-18 09:29N 51°31' E 000°08'0 0.0
2017-Jun-18 08:56N 51°31' E 000°08'0 0.0
2017-Jun-18 08:29N 51°31' E 000°08'0 0.0
2017-Jun-18 07:56N 51°31' E 000°08'0 0.0
2017-Jun-18 07:29N 51°31' E 000°08'0 0.0
2017-Jun-18 06:59N 51°31' E 000°08'0 0.0
2017-Jun-18 06:29N 51°31' E 000°08'0 0.0
2017-Jun-18 05:56N 51°31' E 000°08'0 0.0
2017-Jun-18 05:29N 51°31' E 000°08'0 0.0
2017-Jun-18 04:59N 51°31' E 000°08'0 0.0
2017-Jun-18 04:29N 51°31' E 000°08'0 0.0
2017-Jun-18 03:59N 51°31' E 000°08'0 0.0
2017-Jun-18 03:29N 51°31' E 000°08'0 0.0
2017-Jun-18 02:56N 51°31' E 000°08'0 0.0
2017-Jun-18 02:29N 51°31' E 000°08'0 0.0
2017-Jun-18 01:59N 51°31' E 000°08'0 0.0
2017-Jun-18 01:29N 51°31' E 000°08'0 0.0
2017-Jun-18 00:59N 51°31' E 000°08'0 0.0
2017-Jun-18 00:29N 51°31' E 000°08'0 0.0
2017-Jun-17 23:59N 51°31' E 000°08'0 0.0
2017-Jun-17 23:29N 51°31' E 000°08'0 0.0
2017-Jun-17 22:59N 51°31' E 000°08'0 0.0
2017-Jun-17 22:29N 51°31' E 000°08'0 0.0
2017-Jun-17 21:56N 51°31' E 000°08'0 0.0
2017-Jun-17 21:26N 51°31' E 000°08'0 0.0
2017-Jun-17 20:59N 51°31' E 000°08'0 0.0
2017-Jun-17 20:29N 51°31' E 000°08'0 0.0
2017-Jun-17 19:59N 51°31' E 000°08'0 0.0
2017-Jun-17 19:26N 51°31' E 000°08'0 0.0
2017-Jun-17 18:59N 51°31' E 000°08'0 0.0
2017-Jun-17 18:29N 51°31' E 000°08'0 0.0
2017-Jun-17 17:59N 51°31' E 000°08'0 0.0
2017-Jun-17 17:29N 51°31' E 000°08'0 0.0
2017-Jun-17 16:56N 51°31' E 000°08'0 0.0
2017-Jun-17 16:23N 51°31' E 000°08'0 0.0
2017-Jun-17 15:59N 51°31' E 000°08'0 0.0
2017-Jun-17 15:23N 51°31' E 000°08'0 0.0
2017-Jun-17 15:00N 51°31' E 000°08'2 4.6
2017-Jun-17 14:30N 51°30' E 000°11'9 9.3
2017-Jun-17 13:30N 51°27' E 000°25'5 9.6
2017-Jun-17 13:01N 51°30' E 000°31'5 9.9
2017-Jun-17 12:30N 51°30' E 000°39'510.0
2017-Jun-17 11:59N 51°29' E 000°47'5 9.6
2017-Jun-17 11:28N 51°30' E 000°55'2 1.3
2017-Jun-17 09:39N 51°30' E 000°59'0 0.2
2017-Jun-17 09:30N 51°30' E 000°59'3 3.3
2017-Jun-17 08:43N 51°30' E 001°03'2 8.5
2017-Jun-17 08:30N 51°30' E 001°06'4 8.2
2017-Jun-17 08:00N 51°29' E 001°12'9 8.1
2017-Jun-17 06:55N 51°29' E 001°27'4 9.3
2017-Jun-17 06:30N 51°29' E 001°33'5 9.5
2017-Jun-17 06:00N 51°29' E 001°40'5 9.4
2017-Jun-17 05:30N 51°29' E 001°48'4 9.0
2017-Jun-17 05:01N 51°29' E 001°55'510.2
2017-Jun-17 04:30N 51°25' E 002°01'5 9.9
2017-Jun-17 04:00N 51°22' E 002°06'5 9.5
2017-Jun-17 03:30N 51°17' E 002°06'510.6
2017-Jun-17 02:59N 51°13' E 002°00'510.7
2017-Jun-17 02:30N 51°10' E 001°53'510.2
2017-Jun-17 01:58N 51°07' E 001°46'5 9.8
2017-Jun-17 01:30N 51°04' E 001°41'5 9.2
2017-Jun-17 01:00N 51°00' E 001°35'4 8.9
2017-Jun-17 00:30N 50°57' E 001°31'62 8.3
2017-Jun-16 17:03N 50°22' E 000°10'1 9.3
2017-Jun-16 17:00N 50°22' E 000°09'5 9.4
2017-Jun-16 16:30N 50°21' E 000°02'5 9.6
2017-Jun-16 16:00N 50°20' W 000°05'5 9.9
2017-Jun-16 15:30N 50°19' W 000°13'510.2
2017-Jun-16 15:00N 50°17' W 000°20'510.7
2017-Jun-16 14:30N 50°16' W 000°29'1111.4
2017-Jun-16 13:30N 50°13' W 000°46'612.0
2017-Jun-16 13:00N 50°11' W 000°55'612.2
2017-Jun-16 12:30N 50°10' W 001°04'612.4
2017-Jun-16 12:00N 50°08' W 001°13'612.3
2017-Jun-16 11:30N 50°07' W 001°23'712.1
2017-Jun-16 10:54N 50°05' W 001°34'511.6
2017-Jun-16 10:30N 50°03' W 001°41'611.3
2017-Jun-16 10:00N 50°02' W 001°49'510.7
2017-Jun-16 09:30N 50°01' W 001°57'52 8.7
2017-Jun-16 03:34N 49°50' W 003°16'1 9.2
2017-Jun-16 03:27N 49°50' W 003°17'228 6.8
2017-Jun-14 17:39N 53°32' W 004°44'211.9
2017-Jun-14 17:28N 53°33' W 004°40'2711.6
2017-Jun-14 15:09N 53°24' W 003°57'211.2
2017-Jun-14 15:00N 53°24' W 003°55'1010.0
2017-Jun-14 14:00N 53°18' W 003°40'1 1.4
2017-Jun-14 13:30N 53°18' W 003°40'0 0.0
2017-Jun-14 12:57N 53°18' W 003°40'0 0.0
2017-Jun-14 12:30N 53°18' W 003°40'0 0.0
2017-Jun-14 12:00N 53°18' W 003°40'0 0.0
2017-Jun-14 11:30N 53°18' W 003°40'0 0.0
2017-Jun-14 10:51N 53°18' W 003°40'0 0.0
2017-Jun-14 10:21N 53°18' W 003°40'0 0.0
2017-Jun-14 09:46N 53°18' W 003°40'0 0.6
2017-Jun-14 09:27N 53°18' W 003°40'0 0.7
2017-Jun-14 09:00N 53°18' W 003°41'2 3.5
2017-Jun-14 08:30N 53°20' W 003°41'1 1.2
2017-Jun-14 07:55N 53°21' W 003°41'0 0.1
2017-Jun-14 07:28N 53°21' W 003°41'0 0.0
2017-Jun-14 06:58N 53°21' W 003°41'0 0.0
2017-Jun-14 06:28N 53°21' W 003°41'0 0.0
2017-Jun-14 05:58N 53°21' W 003°41'0 0.0
2017-Jun-14 05:16N 53°21' W 003°41'0 0.3
2017-Jun-14 05:01N 53°21' W 003°41'4 6.5
2017-Jun-14 04:26N 53°22' W 003°47'3 5.3
2017-Jun-14 03:49N 53°25' W 003°50'2 7.6
2017-Jun-14 03:30N 53°27' W 003°48'4 7.7
2017-Jun-14 03:00N 53°30' W 003°45'4 7.4
2017-Jun-14 02:30N 53°33' W 003°41'4 8.2
2017-Jun-14 02:00N 53°33' W 003°34'4 8.2
2017-Jun-14 01:30N 53°33' W 003°27'4 8.2
2017-Jun-14 01:00N 53°33' W 003°20'5 9.6
2017-Jun-14 00:30N 53°31' W 003°12'5 9.0
2017-Jun-14 00:00N 53°30' W 003°05'5 9.4
2017-Jun-13 23:30N 53°26' W 003°01'1 2.8
2017-Jun-13 23:00N 53°24' W 003°01'0 0.0
2017-Jun-13 22:30N 53°24' W 003°01'0 0.1
2017-Jun-13 22:00N 53°24' W 003°01'1 1.6
2017-Jun-13 21:30N 53°24' W 003°03'0 0.0
2017-Jun-13 20:55N 53°24' W 003°03'0 0.0
2017-Jun-13 20:28N 53°24' W 003°03'0 0.0
2017-Jun-13 19:58N 53°24' W 003°03'0 0.0
2017-Jun-13 19:25N 53°24' W 003°03'0 0.0
2017-Jun-13 18:52N 53°24' W 003°03'0 0.0
2017-Jun-13 18:22N 53°24' W 003°03'0 0.0
2017-Jun-13 17:58N 53°24' W 003°03'0 0.0
2017-Jun-13 17:28N 53°24' W 003°03'0 0.0
2017-Jun-13 16:58N 53°24' W 003°03'0 0.0
2017-Jun-13 16:28N 53°24' W 003°03'0 0.0
2017-Jun-13 15:58N 53°24' W 003°03'0 0.0
2017-Jun-13 15:28N 53°24' W 003°03'0 0.0
2017-Jun-13 14:49N 53°24' W 003°03'0 0.0
2017-Jun-13 13:55N 53°24' W 003°03'0 0.0
2017-Jun-13 13:28N 53°24' W 003°03'0 0.0
2017-Jun-13 12:55N 53°24' W 003°03'0 0.0
2017-Jun-13 12:25N 53°24' W 003°03'0 0.0
2017-Jun-13 11:52N 53°24' W 003°03'0 0.0
2017-Jun-13 11:25N 53°24' W 003°03'0 0.0
2017-Jun-13 10:58N 53°24' W 003°03'0 0.0
2017-Jun-13 10:25N 53°24' W 003°03'0 0.0
2017-Jun-13 09:55N 53°24' W 003°03'0 0.0
2017-Jun-13 09:28N 53°24' W 003°03'0 0.0
2017-Jun-13 08:55N 53°24' W 003°03'0 0.0
2017-Jun-13 08:28N 53°24' W 003°03'0 0.0
2017-Jun-13 07:55N 53°24' W 003°03'0 0.0
2017-Jun-13 07:25N 53°24' W 003°03'0 0.0
2017-Jun-13 06:58N 53°24' W 003°03'0 0.0
2017-Jun-13 06:28N 53°24' W 003°03'0 0.0
2017-Jun-13 05:58N 53°24' W 003°03'0 0.0
2017-Jun-13 05:28N 53°24' W 003°03'0 0.0
2017-Jun-13 04:43N 53°24' W 003°03'0 0.0
2017-Jun-13 04:28N 53°24' W 003°03'0 0.0
2017-Jun-13 03:58N 53°24' W 003°03'0 0.0
2017-Jun-13 03:28N 53°24' W 003°03'0 0.0
2017-Jun-13 02:58N 53°24' W 003°03'0 0.0
2017-Jun-13 02:28N 53°24' W 003°03'0 0.0
2017-Jun-13 01:58N 53°24' W 003°03'0 0.0
2017-Jun-13 01:28N 53°24' W 003°03'0 0.0
2017-Jun-13 00:58N 53°24' W 003°03'0 0.0
2017-Jun-13 00:25N 53°24' W 003°03'0 0.0
2017-Jun-12 23:58N 53°24' W 003°03'0 0.0
2017-Jun-12 23:28N 53°24' W 003°03'0 0.0
2017-Jun-12 22:55N 53°24' W 003°03'0 0.0
2017-Jun-12 22:28N 53°24' W 003°03'0 0.0
2017-Jun-12 21:58N 53°24' W 003°03'0 0.0
2017-Jun-12 21:28N 53°24' W 003°03'0 0.0
2017-Jun-12 20:58N 53°24' W 003°03'0 0.0
2017-Jun-12 20:28N 53°24' W 003°03'0 0.0
2017-Jun-12 19:58N 53°24' W 003°03'0 0.0
2017-Jun-12 19:28N 53°24' W 003°03'0 0.0
2017-Jun-12 18:58N 53°24' W 003°03'0 0.0
2017-Jun-12 18:25N 53°24' W 003°03'0 0.0
2017-Jun-12 17:58N 53°24' W 003°03'0 0.0
2017-Jun-12 17:28N 53°24' W 003°03'  

Dump ship's entire track history